createdAt,value
2023-05-19T00:00:34.700Z,4.53
2023-05-19T00:03:05.072Z,4.87
2023-05-19T00:05:34.550Z,4.53
2023-05-19T00:08:03.951Z,5.20
2023-05-19T00:10:33.396Z,5.13
2023-05-19T00:13:02.206Z,5.33
2023-05-19T00:15:30.664Z,5.30
2023-05-19T00:17:58.952Z,6.33
2023-05-19T00:20:28.310Z,5.73
2023-05-19T00:22:56.284Z,5.60
2023-05-19T00:25:24.345Z,5.60
2023-05-19T00:27:52.294Z,5.47
2023-05-19T00:30:22.929Z,6.07
2023-05-19T00:32:51.082Z,6.27
2023-05-19T00:35:19.773Z,6.20
2023-05-19T00:37:49.011Z,5.60
2023-05-19T00:40:17.161Z,5.50
2023-05-19T00:42:45.124Z,5.67
2023-05-19T00:45:13.278Z,5.87
2023-05-19T00:47:41.206Z,5.63
2023-05-19T00:50:09.752Z,5.10
2023-05-19T00:52:37.741Z,5.77
2023-05-19T00:55:09.315Z,6.27
2023-05-19T00:57:37.642Z,5.90
2023-05-19T01:00:07.363Z,5.90
2023-05-19T01:02:38.341Z,6.10
2023-05-19T01:05:07.911Z,6.67
2023-05-19T01:07:36.777Z,5.97
2023-05-19T01:10:06.872Z,6.27
2023-05-19T01:12:35.094Z,6.57
2023-05-19T01:15:03.971Z,6.33
2023-05-19T01:17:40.692Z,7.53
2023-05-19T01:20:15.070Z,6.80
2023-05-19T01:23:16.823Z,7.47
2023-05-19T01:26:11.260Z,6.80
2023-05-19T01:29:18.115Z,7.43
2023-05-19T01:31:49.065Z,7.33
2023-05-19T01:34:18.533Z,7.07
2023-05-19T01:36:49.962Z,7.33
2023-05-19T01:39:18.588Z,8.30
2023-05-19T01:41:46.993Z,8.63
2023-05-19T01:44:16.146Z,9.00
2023-05-19T01:46:44.810Z,8.80
2023-05-19T01:49:14.852Z,7.63
2023-05-19T01:51:42.912Z,9.80
2023-05-19T01:54:10.895Z,8.67
2023-05-19T01:56:47.688Z,8.47
2023-05-19T01:59:29.785Z,8.60
2023-05-19T02:02:02.207Z,9.60
2023-05-19T02:04:42.313Z,9.67
2023-05-19T02:07:16.827Z,8.43
2023-05-19T02:09:54.348Z,8.37
2023-05-19T02:12:29.669Z,9.07
2023-05-19T02:15:03.756Z,9.53
2023-05-19T02:17:36.299Z,9.07
2023-05-19T02:20:07.375Z,9.63
2023-05-19T02:22:35.748Z,9.23
2023-05-19T02:25:03.794Z,9.83
2023-05-19T02:27:31.802Z,8.97
2023-05-19T02:29:59.702Z,9.10
2023-05-19T02:32:28.216Z,9.70
2023-05-19T02:34:56.765Z,9.07
2023-05-19T02:37:28.703Z,9.20
2023-05-19T02:39:56.958Z,9.17
2023-05-19T02:42:24.945Z,10.50
2023-05-19T02:44:55.227Z,9.07
2023-05-19T02:47:23.233Z,10.20
2023-05-19T02:49:51.174Z,10.70
2023-05-19T02:52:19.247Z,10.27
2023-05-19T02:54:48.545Z,9.83
2023-05-19T02:57:16.407Z,9.00
2023-05-19T02:59:44.389Z,9.83
2023-05-19T03:02:12.536Z,9.33
2023-05-19T03:04:42.374Z,10.13
2023-05-19T03:07:11.213Z,9.17
2023-05-19T03:09:39.342Z,10.37
2023-05-19T03:12:09.208Z,10.37
2023-05-19T03:14:38.781Z,10.17
2023-05-19T03:17:08.572Z,9.80
2023-05-19T03:19:36.833Z,9.83
2023-05-19T03:22:05.293Z,9.57
2023-05-19T03:24:33.182Z,9.97
2023-05-19T03:27:02.506Z,9.63
2023-05-19T03:29:31.858Z,9.90
2023-05-19T03:31:59.994Z,11.00
2023-05-19T03:34:28.061Z,9.37
2023-05-19T03:36:56.065Z,10.67
2023-05-19T03:39:23.954Z,9.30
2023-05-19T03:41:51.937Z,11.30
2023-05-19T03:44:19.891Z,10.77
2023-05-19T03:46:49.357Z,9.27
2023-05-19T03:49:17.454Z,10.33
2023-05-19T03:51:46.399Z,10.60
2023-05-19T03:54:14.288Z,10.97
2023-05-19T03:56:44.414Z,10.57
2023-05-19T03:59:13.064Z,10.63
2023-05-19T04:01:40.957Z,11.10
2023-05-19T04:04:10.265Z,10.23
2023-05-19T04:06:38.208Z,8.90
2023-05-19T04:09:13.277Z,8.80
2023-05-19T04:11:41.521Z,9.60
2023-05-19T04:14:10.357Z,9.87
2023-05-19T04:16:38.329Z,8.83
2023-05-19T04:19:06.444Z,7.97
2023-05-19T04:21:35.937Z,9.20
2023-05-19T04:24:06.761Z,9.00
2023-05-19T04:26:34.784Z,9.67
2023-05-19T04:29:04.529Z,9.17
2023-05-19T04:31:34.461Z,9.77
2023-05-19T04:34:02.931Z,9.30
2023-05-19T04:36:31.344Z,9.67
2023-05-19T04:39:02.854Z,7.53
2023-05-19T04:41:30.702Z,8.20
2023-05-19T04:43:58.651Z,10.30
2023-05-19T04:46:27.540Z,8.20
2023-05-19T04:48:57.239Z,9.23
2023-05-19T04:51:30.321Z,8.93
2023-05-19T04:53:58.752Z,8.67
2023-05-19T04:56:29.054Z,9.07
2023-05-19T04:58:56.932Z,8.20
2023-05-19T05:01:26.226Z,9.50
2023-05-19T05:03:55.398Z,10.13
2023-05-19T05:06:23.568Z,8.30
2023-05-19T05:08:52.387Z,8.93
2023-05-19T05:11:21.020Z,9.43
2023-05-19T05:13:51.085Z,8.10
2023-05-19T05:16:19.461Z,8.23
2023-05-19T05:18:48.190Z,8.07
2023-05-19T05:21:16.729Z,8.63
2023-05-19T05:23:45.117Z,8.87
2023-05-19T05:26:19.640Z,8.23
2023-05-19T05:28:47.593Z,8.60
2023-05-19T05:31:17.103Z,8.57
2023-05-19T05:33:45.411Z,8.90
2023-05-19T05:36:13.776Z,8.50
2023-05-19T05:38:41.704Z,9.00
2023-05-19T05:41:09.640Z,8.63
2023-05-19T05:43:37.587Z,8.80
2023-05-19T05:46:06.696Z,8.50
2023-05-19T05:48:37.158Z,9.23
2023-05-19T05:51:06.660Z,8.17
2023-05-19T05:53:41.804Z,8.40
2023-05-19T05:56:11.074Z,9.30
2023-05-19T05:58:40.763Z,8.23
2023-05-19T06:01:11.338Z,7.47
2023-05-19T06:03:42.820Z,8.33
2023-05-19T06:06:11.679Z,8.60
2023-05-19T06:08:39.621Z,8.07
2023-05-19T06:11:09.165Z,8.40
2023-05-19T06:13:37.330Z,9.40
2023-05-19T06:16:05.948Z,8.77
2023-05-19T06:18:33.875Z,9.47
2023-05-19T06:21:03.484Z,8.83
2023-05-19T06:23:31.949Z,7.70
2023-05-19T06:25:59.812Z,8.73
2023-05-19T06:28:27.801Z,7.37
2023-05-19T06:30:55.762Z,7.83
2023-05-19T06:33:26.710Z,7.23
2023-05-19T06:35:56.116Z,7.33
2023-05-19T06:38:25.509Z,7.03
2023-05-19T06:40:53.360Z,7.57
2023-05-19T06:43:21.466Z,4.60
2023-05-19T06:45:49.487Z,6.10
2023-05-19T06:48:17.386Z,5.63
2023-05-19T06:50:45.339Z,5.97
2023-05-19T06:53:13.411Z,7.47
2023-05-19T06:55:57.338Z,7.97
2023-05-19T06:58:27.471Z,6.60
2023-05-19T07:00:55.418Z,6.87
2023-05-19T07:03:23.439Z,6.60
2023-05-19T07:05:51.633Z,7.20
2023-05-19T07:08:19.515Z,7.00
2023-05-19T07:10:48.878Z,6.27
2023-05-19T07:13:16.931Z,5.50
2023-05-19T07:15:44.851Z,6.23
2023-05-19T07:18:12.928Z,6.77
2023-05-19T07:20:40.957Z,5.53
2023-05-19T07:23:08.927Z,6.50
2023-05-19T07:25:36.839Z,6.77
2023-05-19T07:28:06.455Z,5.83
2023-05-19T07:30:34.548Z,5.70
2023-05-19T07:33:03.370Z,6.40
2023-05-19T07:35:31.448Z,6.50
2023-05-19T07:37:59.532Z,6.60
2023-05-19T07:40:27.558Z,6.17
2023-05-19T07:42:55.568Z,6.47
2023-05-19T07:45:25.121Z,6.37
2023-05-19T07:47:54.976Z,6.17
2023-05-19T07:50:23.176Z,7.27
2023-05-19T07:52:51.639Z,6.63
2023-05-19T07:55:19.709Z,7.30
2023-05-19T07:57:47.573Z,7.83
2023-05-19T08:00:16.482Z,7.33
2023-05-19T08:02:46.280Z,7.83
2023-05-19T08:05:14.382Z,6.93
2023-05-19T08:07:42.344Z,7.37
2023-05-19T08:10:10.764Z,7.33
2023-05-19T08:12:38.660Z,6.70
2023-05-19T08:15:07.593Z,7.83
2023-05-19T08:17:35.655Z,6.63
2023-05-19T08:20:06.384Z,7.70
2023-05-19T08:22:34.282Z,7.90
2023-05-19T08:25:02.290Z,7.77
2023-05-19T08:27:30.223Z,7.67
2023-05-19T08:29:58.501Z,8.13
2023-05-19T08:32:26.535Z,7.20
2023-05-19T08:34:54.527Z,7.60
2023-05-19T08:37:23.844Z,7.40
2023-05-19T08:39:51.855Z,7.77
2023-05-19T08:42:19.868Z,8.27
2023-05-19T08:44:47.982Z,8.00
2023-05-19T08:47:16.818Z,11.00
2023-05-19T08:49:46.349Z,8.33
2023-05-19T08:52:25.925Z,9.13
2023-05-19T08:55:11.104Z,8.50
2023-05-19T08:57:39.631Z,8.17
2023-05-19T09:00:09.313Z,8.40
2023-05-19T09:02:50.348Z,9.27
2023-05-19T09:05:27.656Z,8.73
2023-05-19T09:07:56.236Z,7.83
2023-05-19T09:10:27.097Z,8.13
2023-05-19T09:12:55.854Z,8.73
2023-05-19T09:15:28.366Z,8.40
2023-05-19T09:18:08.341Z,8.43
2023-05-19T09:20:39.272Z,8.07
2023-05-19T09:23:07.944Z,8.60
2023-05-19T09:25:37.219Z,8.70
2023-05-19T09:28:05.211Z,8.43
2023-05-19T09:30:34.676Z,8.93
2023-05-19T09:33:04.577Z,8.50
2023-05-19T09:35:33.082Z,8.53
2023-05-19T09:38:02.213Z,8.30
2023-05-19T09:40:30.220Z,9.60
2023-05-19T09:42:59.537Z,8.53
2023-05-19T09:45:30.451Z,9.77
2023-05-19T09:47:58.785Z,9.67
2023-05-19T09:50:30.138Z,8.37
2023-05-19T09:52:58.656Z,8.43
2023-05-19T09:55:30.324Z,9.20
2023-05-19T09:58:03.861Z,8.53
2023-05-19T10:00:34.091Z,8.40
2023-05-19T10:03:05.256Z,8.57
2023-05-19T10:05:35.178Z,8.53
2023-05-19T10:08:07.429Z,9.23
2023-05-19T10:10:35.701Z,8.53
2023-05-19T10:13:05.348Z,9.07
2023-05-19T10:15:40.766Z,9.50
2023-05-19T10:18:13.217Z,8.57
2023-05-19T10:20:42.343Z,9.57
2023-05-19T10:23:10.294Z,8.87
2023-05-19T10:25:39.753Z,9.23
2023-05-19T10:28:14.625Z,9.23
2023-05-19T10:30:46.133Z,9.10
2023-05-19T10:33:18.289Z,9.40
2023-05-19T10:36:09.066Z,8.38
2023-05-19T10:38:44.082Z,9.23
2023-05-19T10:41:21.597Z,9.13
2023-05-19T10:44:02.783Z,8.90
2023-05-19T10:46:31.892Z,8.45
2023-05-19T10:49:00.757Z,8.45
2023-05-19T10:51:32.971Z,8.50
2023-05-19T10:54:03.214Z,8.40
2023-05-19T10:56:34.800Z,8.80
2023-05-19T10:59:04.578Z,8.93
2023-05-19T11:01:33.901Z,9.43
2023-05-19T11:04:07.517Z,9.25
2023-05-19T11:06:37.916Z,8.55
2023-05-19T11:09:17.022Z,8.43
2023-05-19T11:11:47.314Z,8.10
2023-05-19T11:14:19.565Z,8.45
2023-05-19T11:16:52.167Z,8.02
2023-05-19T11:19:21.645Z,7.75
2023-05-19T11:21:50.597Z,8.40
2023-05-19T11:24:38.182Z,8.02
2023-05-19T11:27:23.980Z,8.63
2023-05-19T11:29:53.989Z,8.90
2023-05-19T11:32:22.979Z,9.17
2023-05-19T11:34:51.216Z,9.23
2023-05-19T11:37:19.249Z,9.63
2023-05-19T11:39:47.807Z,9.90
2023-05-19T11:42:15.782Z,11.83
2023-05-19T11:44:46.340Z,10.63
2023-05-19T11:47:16.101Z,10.40
2023-05-19T11:49:49.297Z,9.47
2023-05-19T11:52:17.460Z,10.37
2023-05-19T11:54:49.791Z,9.60
2023-05-19T11:57:17.805Z,10.93
2023-05-19T11:59:45.953Z,8.70
2023-05-19T12:02:20.642Z,7.87
2023-05-19T12:04:49.529Z,6.37
2023-05-19T12:07:18.784Z,5.60
2023-05-19T12:09:47.834Z,5.67
2023-05-19T12:12:17.307Z,5.90
2023-05-19T12:14:47.251Z,5.50
2023-05-19T12:17:16.652Z,5.00
2023-05-19T12:19:47.283Z,5.43
2023-05-19T12:22:16.971Z,4.90
2023-05-19T12:24:45.957Z,5.20
2023-05-19T12:27:18.123Z,5.67
2023-05-19T12:29:51.813Z,5.33
2023-05-19T12:32:20.763Z,5.30
2023-05-19T12:34:51.482Z,5.73
2023-05-19T12:37:19.980Z,5.50
2023-05-19T12:39:50.284Z,4.73
2023-05-19T12:42:18.502Z,5.60
2023-05-19T12:44:47.913Z,6.13
2023-05-19T12:47:17.123Z,5.57
2023-05-19T12:50:03.149Z,5.77
2023-05-19T12:52:32.729Z,5.90
2023-05-19T12:55:01.551Z,5.50
2023-05-19T12:57:31.636Z,5.30
2023-05-19T13:00:07.108Z,5.50
2023-05-19T13:02:36.564Z,6.10
2023-05-19T13:05:06.485Z,7.00
2023-05-19T13:07:35.849Z,5.63
2023-05-19T13:10:03.997Z,5.87
2023-05-19T13:12:31.858Z,5.73
2023-05-19T13:15:00.328Z,5.47
2023-05-19T13:17:28.253Z,5.03
2023-05-19T13:19:56.347Z,5.77
2023-05-19T13:22:26.098Z,5.57
2023-05-19T13:24:54.139Z,5.10
2023-05-19T13:27:24.814Z,5.00
2023-05-19T13:29:52.941Z,5.53
2023-05-19T13:32:20.945Z,5.00
2023-05-19T13:34:49.006Z,5.03
2023-05-19T13:37:17.254Z,4.93
2023-05-19T13:39:46.555Z,5.47
2023-05-19T13:42:14.457Z,5.57
2023-05-19T13:44:42.393Z,5.97
2023-05-19T13:47:10.412Z,5.50
2023-05-19T13:49:38.338Z,5.30
2023-05-19T13:52:07.955Z,5.67
2023-05-19T13:54:36.031Z,5.33
2023-05-19T13:57:06.241Z,6.50
2023-05-19T13:59:36.066Z,5.93
2023-05-19T14:02:08.203Z,6.07
2023-05-19T14:04:38.543Z,5.70
2023-05-19T14:07:06.746Z,6.20
2023-05-19T14:09:35.016Z,6.13
2023-05-19T14:12:03.081Z,6.70
2023-05-19T14:14:32.452Z,6.57
2023-05-19T14:17:00.408Z,6.53
2023-05-19T14:19:30.371Z,6.50
2023-05-19T14:21:58.733Z,5.93
2023-05-19T14:24:26.923Z,6.83
2023-05-19T14:26:54.895Z,6.53
2023-05-19T14:29:22.924Z,6.37
2023-05-19T14:31:52.316Z,6.73
2023-05-19T14:34:21.229Z,7.30
2023-05-19T14:36:49.775Z,6.40
2023-05-19T14:39:17.701Z,7.10
2023-05-19T14:41:45.889Z,7.47
2023-05-19T14:44:13.783Z,7.87
2023-05-19T14:46:41.761Z,7.03
2023-05-19T14:49:11.868Z,7.73
2023-05-19T14:51:39.800Z,7.80
2023-05-19T14:54:07.792Z,7.03
2023-05-19T14:56:35.843Z,7.40
2023-05-19T14:59:04.722Z,7.87
2023-05-19T15:01:32.685Z,6.57
2023-05-19T15:04:00.793Z,6.80
2023-05-19T15:06:30.146Z,7.07
2023-05-19T15:08:58.096Z,6.90
2023-05-19T15:11:26.450Z,10.27
2023-05-19T15:13:54.394Z,7.47
2023-05-19T15:16:22.350Z,6.37
2023-05-19T15:18:51.576Z,6.70
2023-05-19T15:21:19.538Z,7.83
2023-05-19T15:23:48.768Z,7.20
2023-05-19T15:26:16.939Z,7.40
2023-05-19T15:28:44.834Z,8.13
2023-05-19T15:31:12.767Z,9.13
2023-05-19T15:33:40.736Z,8.73
2023-05-19T15:36:08.732Z,7.50
2023-05-19T15:38:37.172Z,7.07
2023-05-19T15:41:10.562Z,6.63
2023-05-19T15:43:38.851Z,7.53
2023-05-19T15:46:06.887Z,6.43
2023-05-19T15:48:35.017Z,6.87
2023-05-19T15:51:03.468Z,7.33
2023-05-19T15:53:31.412Z,7.40
2023-05-19T15:55:59.338Z,7.03
2023-05-19T15:58:28.639Z,6.17
2023-05-19T16:00:56.632Z,6.13
2023-05-19T16:03:24.704Z,5.97
2023-05-19T16:05:54.353Z,6.40
2023-05-19T16:08:22.363Z,5.93
2023-05-19T16:10:50.461Z,5.80
2023-05-19T16:13:18.436Z,6.30
2023-05-19T16:15:47.770Z,6.40
2023-05-19T16:18:16.510Z,6.40
2023-05-19T16:20:44.890Z,6.90
2023-05-19T16:23:12.783Z,8.43
2023-05-19T16:25:41.559Z,6.57
2023-05-19T16:28:09.995Z,6.03
2023-05-19T16:30:38.085Z,6.77
2023-05-19T16:33:07.706Z,7.33
2023-05-19T16:35:36.365Z,7.00
2023-05-19T16:38:04.556Z,7.20
2023-05-19T16:40:32.693Z,7.87
2023-05-19T16:43:00.820Z,6.87
2023-05-19T16:45:28.836Z,7.10
2023-05-19T16:47:56.932Z,6.83
2023-05-19T16:50:26.297Z,7.53
2023-05-19T16:52:54.370Z,7.47
2023-05-19T16:55:22.854Z,6.63
2023-05-19T16:57:50.843Z,6.40
2023-05-19T17:00:19.151Z,6.70
2023-05-19T17:02:47.150Z,6.50
2023-05-19T17:05:15.238Z,6.87
2023-05-19T17:07:44.536Z,6.53
2023-05-19T17:10:15.856Z,6.33
2023-05-19T17:12:43.778Z,7.10
2023-05-19T17:15:12.338Z,8.23
2023-05-19T17:17:40.261Z,7.43
2023-05-19T17:20:09.619Z,9.07
2023-05-19T17:22:37.668Z,8.80
2023-05-19T17:25:08.697Z,8.07
2023-05-19T17:27:36.691Z,8.00
2023-05-19T17:30:05.209Z,6.73
2023-05-19T17:32:38.871Z,7.60
2023-05-19T17:35:08.352Z,7.50
2023-05-19T17:37:36.503Z,6.67
2023-05-19T17:40:06.615Z,7.97
2023-05-19T17:42:34.920Z,7.50
2023-05-19T17:45:04.416Z,7.20
2023-05-19T17:47:32.384Z,7.50
2023-05-19T17:50:00.322Z,8.30
2023-05-19T17:52:28.679Z,8.43
2023-05-19T17:54:57.122Z,8.90
2023-05-19T17:57:27.409Z,8.13
2023-05-19T17:59:55.762Z,10.60
2023-05-19T18:02:24.163Z,10.23
2023-05-19T18:04:52.798Z,10.03
2023-05-19T18:07:23.086Z,9.37
2023-05-19T18:09:52.929Z,8.53
2023-05-19T18:12:21.388Z,12.30
2023-05-19T18:14:50.694Z,11.83
2023-05-19T18:17:18.865Z,12.73
2023-05-19T18:19:46.874Z,16.17
2023-05-19T18:22:14.990Z,13.70
2023-05-19T18:24:43.048Z,15.27
2023-05-19T18:27:10.963Z,12.10
2023-05-19T18:29:39.282Z,13.80
2023-05-19T18:32:09.410Z,8.70
2023-05-19T18:34:37.913Z,9.87
2023-05-19T18:37:06.405Z,8.77
2023-05-19T18:39:34.430Z,10.00
2023-05-19T18:42:02.790Z,9.70
2023-05-19T18:44:30.922Z,8.33
2023-05-19T18:46:58.956Z,7.80
2023-05-19T18:49:28.187Z,8.17
2023-05-19T18:51:56.169Z,7.70
2023-05-19T18:54:25.002Z,9.63
2023-05-19T18:56:52.938Z,9.83
2023-05-19T18:59:20.862Z,8.17
2023-05-19T19:01:48.837Z,7.83
2023-05-19T19:04:16.872Z,7.93
2023-05-19T19:06:46.312Z,9.80
2023-05-19T19:09:15.092Z,11.93
2023-05-19T19:11:43.102Z,11.63
2023-05-19T19:14:11.294Z,12.33
2023-05-19T19:16:39.256Z,14.63
2023-05-19T19:19:07.379Z,12.47
2023-05-19T19:21:35.354Z,16.80
2023-05-19T19:24:05.162Z,12.20
2023-05-19T19:26:33.286Z,10.43
2023-05-19T19:29:01.192Z,9.10
2023-05-19T19:31:29.806Z,10.63
2023-05-19T19:34:00.892Z,10.27
2023-05-19T19:36:29.242Z,10.03
2023-05-19T19:38:57.202Z,11.10
2023-05-19T19:41:26.562Z,10.67
2023-05-19T19:43:54.538Z,9.73
2023-05-19T19:46:22.621Z,8.40
2023-05-19T19:48:51.146Z,8.90
2023-05-19T19:51:19.099Z,7.37
2023-05-19T19:53:47.010Z,7.70
2023-05-19T19:56:14.973Z,8.50
2023-05-19T19:58:44.281Z,7.60
2023-05-19T20:01:12.606Z,7.90
2023-05-19T20:03:41.032Z,7.17
2023-05-19T20:06:09.196Z,6.97
2023-05-19T20:08:37.155Z,6.30
2023-05-19T20:11:05.037Z,6.90
2023-05-19T20:13:33.128Z,6.30
2023-05-19T20:16:02.699Z,6.03
2023-05-19T20:18:30.830Z,7.00
2023-05-19T20:20:58.838Z,7.33
2023-05-19T20:23:26.770Z,6.60
2023-05-19T20:26:06.594Z,5.93
2023-05-19T20:28:39.665Z,6.40
2023-05-19T20:31:09.257Z,7.30
2023-05-19T20:33:37.307Z,6.00
2023-05-19T20:36:07.094Z,6.73
2023-05-19T20:38:34.927Z,6.03
2023-05-19T20:41:03.903Z,7.90
2023-05-19T20:43:33.417Z,9.13
2023-05-19T20:46:03.859Z,8.80
2023-05-19T20:48:33.266Z,7.30
2023-05-19T20:51:01.636Z,8.97
2023-05-19T20:53:29.558Z,8.90
2023-05-19T20:55:57.509Z,10.87
2023-05-19T20:58:26.922Z,11.63
2023-05-19T21:00:57.921Z,10.00
2023-05-19T21:03:27.202Z,10.67
2023-05-19T21:05:57.008Z,10.77
2023-05-19T21:08:25.288Z,10.87
2023-05-19T21:10:53.289Z,9.00
2023-05-19T21:13:21.333Z,8.27
2023-05-19T21:15:49.278Z,8.47
2023-05-19T21:18:17.427Z,6.83
2023-05-19T21:20:45.376Z,8.13
2023-05-19T21:23:14.666Z,7.33
2023-05-19T21:25:44.048Z,6.93
2023-05-19T21:28:13.431Z,8.30
2023-05-19T21:30:41.710Z,8.83
2023-05-19T21:33:09.807Z,8.23
2023-05-19T21:35:38.731Z,7.70
2023-05-19T21:38:22.111Z,7.67
2023-05-19T21:40:53.233Z,7.33
2023-05-19T21:43:21.939Z,6.53
2023-05-19T21:45:49.910Z,6.90
2023-05-19T21:48:18.086Z,7.00
2023-05-19T21:50:45.998Z,7.20
2023-05-19T21:53:13.942Z,7.20
2023-05-19T21:55:42.001Z,7.40
2023-05-19T21:58:11.289Z,6.70
2023-05-19T22:00:39.430Z,6.53
2023-05-19T22:03:07.887Z,7.77
2023-05-19T22:05:38.196Z,6.70
2023-05-19T22:08:06.373Z,7.50
2023-05-19T22:10:35.109Z,6.63
2023-05-19T22:13:03.263Z,7.23
2023-05-19T22:15:32.555Z,7.57
2023-05-19T22:18:00.566Z,7.40
2023-05-19T22:20:28.895Z,7.63
2023-05-19T22:22:57.449Z,7.67
2023-05-19T22:25:25.343Z,8.00
2023-05-19T22:27:53.364Z,7.97
2023-05-19T22:30:21.838Z,6.47
2023-05-19T22:32:51.654Z,7.50
2023-05-19T22:35:19.999Z,8.13
2023-05-19T22:37:47.895Z,7.63
2023-05-19T22:40:16.112Z,7.87
2023-05-19T22:42:43.984Z,15.10
2023-05-19T22:45:12.527Z,7.47
2023-05-19T22:47:40.735Z,7.77
2023-05-19T22:50:12.281Z,8.17
2023-05-19T22:52:40.463Z,9.43
2023-05-19T22:55:09.340Z,8.00
2023-05-19T22:57:37.293Z,8.07
2023-05-19T23:00:05.852Z,8.53
2023-05-19T23:02:34.033Z,8.63
2023-05-19T23:05:02.106Z,10.03
2023-05-19T23:07:31.542Z,8.97
2023-05-19T23:09:59.674Z,8.50
2023-05-19T23:12:27.701Z,9.73
2023-05-19T23:14:55.587Z,9.10
2023-05-19T23:17:23.649Z,10.17
2023-05-19T23:19:51.738Z,9.83
2023-05-19T23:22:19.657Z,9.20
2023-05-19T23:24:49.119Z,7.90
2023-05-19T23:27:16.997Z,8.50
2023-05-19T23:29:48.518Z,7.83
2023-05-19T23:32:16.805Z,7.00
2023-05-19T23:34:45.151Z,7.07
2023-05-19T23:37:13.095Z,7.27
2023-05-19T23:39:41.043Z,7.33
2023-05-19T23:42:10.415Z,8.07
2023-05-19T23:44:38.880Z,7.00
2023-05-19T23:47:07.336Z,6.80
2023-05-19T23:49:35.327Z,7.73
2023-05-19T23:52:03.276Z,6.83
2023-05-19T23:54:31.438Z,6.67
2023-05-19T23:56:59.487Z,7.03
2023-05-19T23:59:28.804Z,7.13
